createdAt,value
2023-03-17T00:00:16.424Z,1.40
2023-03-17T00:01:16.936Z,1.40
2023-03-17T00:02:16.822Z,1.42
2023-03-17T00:03:16.492Z,1.39
2023-03-17T00:04:17.024Z,1.38
2023-03-17T00:06:16.619Z,1.36
2023-03-17T00:07:17.196Z,1.35
2023-03-17T00:09:16.781Z,1.33
2023-03-17T00:10:17.298Z,1.32
2023-03-17T00:11:16.845Z,1.33
2023-03-17T00:12:16.940Z,1.31
2023-03-17T00:13:16.404Z,1.28
2023-03-17T00:14:16.928Z,1.26
2023-03-17T00:15:16.398Z,1.26
2023-03-17T00:16:17.051Z,1.26
2023-03-17T00:17:16.747Z,1.24
2023-03-17T00:18:17.247Z,1.24
2023-03-17T00:19:16.739Z,1.24
2023-03-17T00:20:17.249Z,1.24
2023-03-17T00:21:16.738Z,1.22
2023-03-17T00:23:16.630Z,1.21
2023-03-17T00:24:17.202Z,1.21
2023-03-17T00:25:16.754Z,1.21
2023-03-17T00:26:17.316Z,1.19
2023-03-17T00:27:16.812Z,1.18
2023-03-17T00:28:16.317Z,1.16
2023-03-17T00:29:16.795Z,1.16
2023-03-17T00:30:17.321Z,1.16
2023-03-17T00:31:16.909Z,1.15
2023-03-17T00:32:16.938Z,1.14
2023-03-17T00:34:16.545Z,1.15
2023-03-17T00:35:17.073Z,1.12
2023-03-17T00:36:16.606Z,1.12
2023-03-17T00:37:17.117Z,1.12
2023-03-17T00:38:16.605Z,1.09
2023-03-17T00:39:17.123Z,1.11
2023-03-17T00:40:16.706Z,1.08
2023-03-17T00:42:16.884Z,1.04
2023-03-17T00:43:16.380Z,1.02
2023-03-17T00:44:16.885Z,1.02
2023-03-17T00:46:16.567Z,1.04
2023-03-17T00:47:17.238Z,1.02
2023-03-17T00:48:16.838Z,1.04
2023-03-17T00:49:17.703Z,1.02
2023-03-17T00:50:17.204Z,1.08
2023-03-17T00:51:16.707Z,1.07
2023-03-17T00:52:16.404Z,1.08
2023-03-17T00:54:17.035Z,1.15
2023-03-17T00:55:16.560Z,1.14
2023-03-17T00:56:17.082Z,1.14
2023-03-17T00:58:16.754Z,1.25
2023-03-17T01:00:16.343Z,1.39
2023-03-17T01:01:16.860Z,1.49
2023-03-17T01:02:16.786Z,1.56
2023-03-17T01:03:16.395Z,1.59
2023-03-17T01:05:16.979Z,1.70
2023-03-17T01:06:16.475Z,1.67
2023-03-17T01:07:17.218Z,1.73
2023-03-17T01:08:16.712Z,1.74
2023-03-17T01:09:17.211Z,1.75
2023-03-17T01:10:16.724Z,1.88
2023-03-17T01:11:17.240Z,1.78
2023-03-17T01:12:16.919Z,1.69
2023-03-17T01:13:16.402Z,1.67
2023-03-17T01:14:16.965Z,1.56
2023-03-17T01:16:16.614Z,1.52
2023-03-17T01:17:17.171Z,1.54
2023-03-17T01:18:16.743Z,1.50
2023-03-17T01:20:16.441Z,1.40
2023-03-17T01:21:16.940Z,1.39
2023-03-17T01:22:16.987Z,1.39
2023-03-17T01:23:16.482Z,1.40
2023-03-17T01:24:16.978Z,1.45
2023-03-17T01:26:16.550Z,1.40
2023-03-17T01:27:17.064Z,1.39
2023-03-17T01:28:16.572Z,1.40
2023-03-17T01:29:17.064Z,1.38
2023-03-17T01:30:16.569Z,1.39
2023-03-17T01:31:17.083Z,1.40
2023-03-17T01:32:17.102Z,1.38
2023-03-17T01:33:16.609Z,1.39
2023-03-17T01:34:17.144Z,1.53
2023-03-17T01:35:16.655Z,1.57
2023-03-17T01:36:17.158Z,1.56
2023-03-17T01:37:16.670Z,1.52
2023-03-17T01:38:17.206Z,1.50
2023-03-17T01:39:16.730Z,1.46
2023-03-17T01:40:17.241Z,1.46
2023-03-17T01:41:16.744Z,1.47
2023-03-17T01:42:17.161Z,1.47
2023-03-17T01:43:16.685Z,1.45
2023-03-17T01:44:17.181Z,1.46
2023-03-17T01:45:16.689Z,1.42
2023-03-17T01:46:17.233Z,1.36
2023-03-17T01:47:16.778Z,1.38
2023-03-17T01:48:17.283Z,1.35
2023-03-17T01:49:16.784Z,1.25
2023-03-17T01:50:17.276Z,1.24
2023-03-17T01:52:16.769Z,1.14
2023-03-17T01:53:17.269Z,1.14
2023-03-17T01:54:16.774Z,1.15
2023-03-17T01:55:17.307Z,1.11
2023-03-17T01:56:16.808Z,1.07
2023-03-17T01:57:16.325Z,1.07
2023-03-17T01:58:16.840Z,1.08
2023-03-17T02:00:16.437Z,0.92
2023-03-17T02:01:16.915Z,0.91
2023-03-17T02:02:16.658Z,0.88
2023-03-17T02:04:17.313Z,0.88
2023-03-17T02:07:17.115Z,0.90
2023-03-17T02:08:16.648Z,0.88
2023-03-17T02:09:17.205Z,0.88
2023-03-17T02:11:16.836Z,0.87
2023-03-17T02:12:16.365Z,0.88
2023-03-17T02:13:16.866Z,0.87
2023-03-17T02:14:16.387Z,0.88
2023-03-17T02:15:16.912Z,0.87
2023-03-17T02:16:16.445Z,0.85
2023-03-17T02:17:17.081Z,0.84
2023-03-17T02:18:16.576Z,0.85
2023-03-17T02:19:17.052Z,0.83
2023-03-17T02:20:16.536Z,0.83
2023-03-17T02:21:17.056Z,0.79
2023-03-17T02:22:16.371Z,0.71
2023-03-17T02:23:16.869Z,0.74
2023-03-17T02:24:16.379Z,0.74
2023-03-17T02:25:16.905Z,0.73
2023-03-17T02:26:16.433Z,0.70
2023-03-17T02:27:16.963Z,0.71
2023-03-17T02:28:16.481Z,0.71
2023-03-17T02:29:17.022Z,0.73
2023-03-17T02:30:16.524Z,0.70
2023-03-17T02:31:17.063Z,0.73
2023-03-17T02:32:17.205Z,0.71
2023-03-17T02:33:16.685Z,0.73
2023-03-17T02:34:17.204Z,0.74
2023-03-17T02:35:16.690Z,0.73
2023-03-17T02:36:17.209Z,0.73
2023-03-17T02:37:16.762Z,0.74
2023-03-17T02:38:17.266Z,0.73
2023-03-17T02:39:16.784Z,0.71
2023-03-17T02:40:17.302Z,0.71
2023-03-17T02:41:16.797Z,0.71
2023-03-17T02:42:16.879Z,0.73
2023-03-17T02:45:16.571Z,0.84
2023-03-17T02:47:17.116Z,0.91
2023-03-17T02:48:16.644Z,0.98
2023-03-17T02:49:17.177Z,1.05
2023-03-17T02:51:16.783Z,1.15
2023-03-17T02:53:17.155Z,1.22
2023-03-17T02:54:16.671Z,1.22
2023-03-17T02:55:17.163Z,1.22
2023-03-17T02:56:16.659Z,1.22
2023-03-17T02:57:17.176Z,1.22
2023-03-17T02:58:16.675Z,1.21
2023-03-17T02:59:17.149Z,1.22
2023-03-17T03:00:16.666Z,1.21
2023-03-17T03:01:17.196Z,1.21
2023-03-17T03:02:16.536Z,1.21
2023-03-17T03:03:17.126Z,1.15
2023-03-17T03:04:16.608Z,1.19
2023-03-17T03:05:17.094Z,1.19
2023-03-17T03:06:16.597Z,1.15
2023-03-17T03:07:17.172Z,1.16
2023-03-17T03:08:16.641Z,1.16
2023-03-17T03:11:17.309Z,1.16
2023-03-17T03:14:16.858Z,1.16
2023-03-17T03:15:16.365Z,1.08
2023-03-17T03:16:16.924Z,1.12
2023-03-17T03:17:16.567Z,1.12
2023-03-17T03:20:17.235Z,1.11
2023-03-17T03:21:16.777Z,1.09
2023-03-17T03:22:16.810Z,1.07
2023-03-17T03:23:17.322Z,1.07
2023-03-17T03:24:16.815Z,1.04
2023-03-17T03:25:17.310Z,1.05
2023-03-17T03:26:16.820Z,1.04
2023-03-17T03:27:16.338Z,1.04
2023-03-17T03:28:16.823Z,1.04
2023-03-17T03:29:16.325Z,1.02
2023-03-17T03:30:16.805Z,0.99
2023-03-17T03:31:17.421Z,0.98
2023-03-17T03:32:17.163Z,0.97
2023-03-17T03:33:16.676Z,0.97
2023-03-17T03:34:17.268Z,0.97
2023-03-17T03:35:16.774Z,1.05
2023-03-17T03:36:17.300Z,1.08
2023-03-17T03:37:16.831Z,1.08
2023-03-17T03:38:16.315Z,1.12
2023-03-17T03:39:16.817Z,1.15
2023-03-17T03:40:17.307Z,1.22
2023-03-17T03:41:16.787Z,1.24
2023-03-17T03:42:16.552Z,1.28
2023-03-17T03:43:23.228Z,1.29
2023-03-17T03:44:16.661Z,1.32
2023-03-17T03:45:17.141Z,1.33
2023-03-17T03:46:16.700Z,1.33
2023-03-17T03:47:16.334Z,1.35
2023-03-17T03:48:16.832Z,1.36
2023-03-17T03:49:16.408Z,1.35
2023-03-17T03:50:16.920Z,1.39
2023-03-17T03:51:16.400Z,1.39
2023-03-17T03:52:17.238Z,1.40
2023-03-17T03:53:16.722Z,1.46
2023-03-17T03:54:17.202Z,1.46
2023-03-17T03:55:16.717Z,1.49
2023-03-17T03:56:17.216Z,1.49
2023-03-17T03:57:16.727Z,1.52
2023-03-17T03:58:17.227Z,1.53
2023-03-17T03:59:16.717Z,1.53
2023-03-17T04:00:17.223Z,1.54
2023-03-17T04:01:16.726Z,1.56
2023-03-17T04:02:16.898Z,1.57
2023-03-17T04:03:16.438Z,1.57
2023-03-17T04:04:16.911Z,1.61
2023-03-17T04:05:16.411Z,1.60
2023-03-17T04:06:16.914Z,1.60
2023-03-17T04:07:16.391Z,1.64
2023-03-17T04:08:16.901Z,1.66
2023-03-17T04:09:16.407Z,1.67
2023-03-17T04:10:16.898Z,1.67
2023-03-17T04:11:16.400Z,1.67
2023-03-17T04:12:17.197Z,1.69
2023-03-17T04:13:16.672Z,1.69
2023-03-17T04:14:17.173Z,1.69
2023-03-17T04:15:16.699Z,1.74
2023-03-17T04:16:17.260Z,1.71
2023-03-17T04:17:16.887Z,1.71
2023-03-17T04:18:16.389Z,1.71
2023-03-17T04:19:16.904Z,1.67
2023-03-17T04:20:16.556Z,1.63
2023-03-17T04:21:17.057Z,1.66
2023-03-17T04:22:17.145Z,1.64
2023-03-17T04:23:16.659Z,1.63
2023-03-17T04:24:17.152Z,1.63
2023-03-17T04:25:16.633Z,1.63
2023-03-17T04:26:17.185Z,1.61
2023-03-17T04:27:16.725Z,1.60
2023-03-17T04:28:17.243Z,1.59
2023-03-17T04:29:16.765Z,1.60
2023-03-17T04:30:17.285Z,1.63
2023-03-17T04:31:16.792Z,1.63
2023-03-17T04:32:17.240Z,1.59
2023-03-17T04:33:16.736Z,1.59
2023-03-17T04:34:17.242Z,1.56
2023-03-17T04:35:16.771Z,1.57
2023-03-17T04:36:17.284Z,1.57
2023-03-17T04:37:16.782Z,1.56
2023-03-17T04:38:17.264Z,1.54
2023-03-17T04:39:16.754Z,1.54
2023-03-17T04:40:17.278Z,1.53
2023-03-17T04:41:16.768Z,1.52
2023-03-17T04:42:16.586Z,1.52
2023-03-17T04:43:17.108Z,1.47
2023-03-17T04:44:16.613Z,1.52
2023-03-17T04:45:17.193Z,1.50
2023-03-17T04:46:16.789Z,1.52
2023-03-17T04:47:16.407Z,1.52
2023-03-17T04:48:16.952Z,1.50
2023-03-17T04:49:16.580Z,1.52
2023-03-17T04:50:17.076Z,1.52
2023-03-17T04:51:16.581Z,1.52
2023-03-17T04:52:16.620Z,1.53
2023-03-17T04:53:17.129Z,1.52
2023-03-17T04:54:16.609Z,1.50
2023-03-17T04:55:17.148Z,1.52
2023-03-17T04:56:16.630Z,1.52
2023-03-17T04:57:17.174Z,1.54
2023-03-17T04:58:29.750Z,1.54
2023-03-17T04:59:16.493Z,1.56
2023-03-17T05:00:17.012Z,1.54
2023-03-17T05:01:16.548Z,1.56
2023-03-17T05:02:17.226Z,1.53
2023-03-17T05:03:26.279Z,1.54
2023-03-17T05:04:25.344Z,1.56
2023-03-17T05:05:17.264Z,1.56
2023-03-17T05:06:16.757Z,1.54
2023-03-17T05:07:17.238Z,1.53
2023-03-17T05:08:16.717Z,1.54
2023-03-17T05:09:17.262Z,1.49
2023-03-17T05:10:16.863Z,1.45
2023-03-17T05:11:16.373Z,1.45
2023-03-17T05:12:17.171Z,1.49
2023-03-17T05:13:16.694Z,1.43
2023-03-17T05:14:17.239Z,1.40
2023-03-17T05:15:16.743Z,1.39
2023-03-17T05:16:17.287Z,1.39
2023-03-17T05:17:16.848Z,1.36
2023-03-17T05:18:16.358Z,1.36
2023-03-17T05:19:16.851Z,1.33
2023-03-17T05:20:16.361Z,1.33
2023-03-17T05:21:16.857Z,1.26
2023-03-17T05:22:16.751Z,1.25
2023-03-17T05:23:17.244Z,1.15
2023-03-17T05:24:16.743Z,1.05
2023-03-17T05:25:17.256Z,1.02
2023-03-17T05:26:16.782Z,1.08
2023-03-17T05:27:17.297Z,1.07
2023-03-17T05:28:16.789Z,1.05
2023-03-17T05:29:17.318Z,1.09
2023-03-17T05:30:16.818Z,1.07
2023-03-17T05:31:16.352Z,1.01
2023-03-17T05:32:16.491Z,1.02
2023-03-17T05:33:16.998Z,0.98
2023-03-17T05:34:16.516Z,0.97
2023-03-17T05:35:17.023Z,0.95
2023-03-17T05:36:16.526Z,0.94
2023-03-17T05:37:17.018Z,0.94
2023-03-17T05:38:16.492Z,0.97
2023-03-17T05:39:16.998Z,0.94
2023-03-17T05:40:16.518Z,0.94
2023-03-17T05:41:17.004Z,0.95
2023-03-17T05:42:16.588Z,0.94
2023-03-17T05:43:17.065Z,0.92
2023-03-17T05:44:16.569Z,0.95
2023-03-17T05:45:17.082Z,0.92
2023-03-17T05:46:18.009Z,0.91
2023-03-17T05:47:16.997Z,0.92
2023-03-17T05:48:16.481Z,0.90
2023-03-17T05:49:16.974Z,0.92
2023-03-17T05:50:16.508Z,0.88
2023-03-17T05:51:17.023Z,0.83
2023-03-17T05:52:17.224Z,0.80
2023-03-17T05:53:16.728Z,0.76
2023-03-17T05:54:17.219Z,0.80
2023-03-17T05:55:16.759Z,0.83
2023-03-17T05:56:17.289Z,0.79
2023-03-17T05:57:16.770Z,0.81
2023-03-17T05:58:17.290Z,0.79
2023-03-17T05:59:16.818Z,0.76
2023-03-17T06:00:16.347Z,0.77
2023-03-17T06:01:16.822Z,0.74
2023-03-17T06:02:16.750Z,0.76
2023-03-17T06:03:16.391Z,0.80
2023-03-17T06:04:16.913Z,0.77
2023-03-17T06:05:16.443Z,0.80
2023-03-17T06:06:16.963Z,0.80
2023-03-17T06:07:16.469Z,0.83
2023-03-17T06:08:17.013Z,0.85
2023-03-17T06:09:16.551Z,0.85
2023-03-17T06:10:17.040Z,0.87
2023-03-17T06:11:16.539Z,0.88
2023-03-17T06:12:16.806Z,0.90
2023-03-17T06:13:17.287Z,0.92
2023-03-17T06:14:16.811Z,0.95
2023-03-17T06:15:16.316Z,0.95
2023-03-17T06:16:16.884Z,0.98
2023-03-17T06:17:16.456Z,1.05
2023-03-17T06:18:16.929Z,1.11
2023-03-17T06:19:16.451Z,1.11
2023-03-17T06:20:16.968Z,1.18
2023-03-17T06:21:16.469Z,1.24
2023-03-17T06:22:17.254Z,1.28
2023-03-17T06:23:16.767Z,1.38
2023-03-17T06:24:17.269Z,1.50
2023-03-17T06:25:16.793Z,1.54
2023-03-17T06:26:17.450Z,1.69
2023-03-17T06:27:16.960Z,1.81
2023-03-17T06:28:16.451Z,1.97
2023-03-17T06:29:16.951Z,2.05
2023-03-17T06:30:16.443Z,2.20
2023-03-17T06:31:16.999Z,2.36
2023-03-17T06:32:20.541Z,2.47
2023-03-17T06:33:16.673Z,2.59
2023-03-17T06:34:17.181Z,2.71
2023-03-17T06:35:16.729Z,2.82
2023-03-17T06:36:17.224Z,3.00
2023-03-17T06:37:16.723Z,3.10
2023-03-17T06:38:17.190Z,3.22
2023-03-17T06:39:16.710Z,3.31
2023-03-17T06:40:17.219Z,3.46
2023-03-17T06:41:16.708Z,3.61
2023-03-17T06:42:16.426Z,3.68
2023-03-17T06:43:16.909Z,3.81
2023-03-17T06:44:16.429Z,3.97
2023-03-17T06:45:16.944Z,4.16
2023-03-17T06:46:16.455Z,4.20
2023-03-17T06:47:17.067Z,4.30
2023-03-17T06:48:16.575Z,4.30
2023-03-17T06:49:17.106Z,4.33
2023-03-17T06:50:16.581Z,4.42
2023-03-17T06:51:17.115Z,4.51
2023-03-17T06:52:17.103Z,4.55
2023-03-17T06:53:16.616Z,4.76
2023-03-17T06:54:17.088Z,5.02
2023-03-17T06:55:16.596Z,5.20
2023-03-17T06:56:29.076Z,5.28
2023-03-17T06:57:17.018Z,5.46
2023-03-17T06:58:16.510Z,5.25
2023-03-17T06:59:16.994Z,5.10
2023-03-17T07:00:16.502Z,5.23
2023-03-17T07:01:17.032Z,5.51
2023-03-17T07:02:16.932Z,5.55
2023-03-17T07:03:16.411Z,5.89
2023-03-17T07:04:16.911Z,6.18
2023-03-17T07:05:16.501Z,6.21
2023-03-17T07:06:17.004Z,6.12
2023-03-17T07:07:16.510Z,5.86
2023-03-17T07:08:17.025Z,6.03
2023-03-17T07:09:16.548Z,6.00
2023-03-17T07:10:17.059Z,6.22
2023-03-17T07:11:16.711Z,6.61
2023-03-17T07:12:16.400Z,6.65
2023-03-17T07:13:16.935Z,6.67
2023-03-17T07:14:16.421Z,6.83
2023-03-17T07:15:16.922Z,6.90
2023-03-17T07:16:16.443Z,6.94
2023-03-17T07:17:17.066Z,7.00
2023-03-17T07:18:16.606Z,7.21
2023-03-17T07:19:17.094Z,7.43
2023-03-17T07:20:16.623Z,7.70
2023-03-17T07:21:17.127Z,8.11
2023-03-17T07:22:16.822Z,8.11
2023-03-17T07:23:16.324Z,8.20
2023-03-17T07:24:16.831Z,8.33
2023-03-17T07:25:16.333Z,8.36
2023-03-17T07:26:16.868Z,8.53
2023-03-17T07:27:16.424Z,8.63
2023-03-17T07:28:16.937Z,8.92
2023-03-17T07:29:16.451Z,9.02
2023-03-17T07:30:16.983Z,8.84
2023-03-17T07:31:16.530Z,8.95
2023-03-17T07:32:16.710Z,8.96
2023-03-17T07:33:17.247Z,9.22
2023-03-17T07:34:16.763Z,8.92
2023-03-17T07:35:17.404Z,9.15
2023-03-17T07:36:17.019Z,9.71
2023-03-17T07:37:16.568Z,9.82
2023-03-17T07:38:17.109Z,10.10
2023-03-17T07:39:16.686Z,10.36
2023-03-17T07:40:17.246Z,10.34
2023-03-17T07:41:16.756Z,10.64
2023-03-17T07:42:16.751Z,10.81
2023-03-17T07:43:17.229Z,10.99
2023-03-17T07:44:16.714Z,11.02
2023-03-17T07:45:17.254Z,10.74
2023-03-17T07:46:16.845Z,10.26
2023-03-17T07:47:16.493Z,10.20
2023-03-17T07:48:17.269Z,10.26
2023-03-17T07:49:17.346Z,10.03
2023-03-17T07:50:16.780Z,10.40
2023-03-17T07:51:17.316Z,10.71
2023-03-17T07:52:17.272Z,10.89
2023-03-17T07:53:16.788Z,11.10
2023-03-17T07:54:17.283Z,10.99
2023-03-17T07:55:16.777Z,11.03
2023-03-17T07:56:17.303Z,11.16
2023-03-17T07:57:16.967Z,11.09
2023-03-17T07:58:16.587Z,11.03
2023-03-17T07:59:17.099Z,10.78
2023-03-17T08:00:16.597Z,11.03
2023-03-17T08:01:17.177Z,10.98
2023-03-17T08:02:16.522Z,11.13
2023-03-17T08:03:17.215Z,11.27
2023-03-17T08:04:16.776Z,11.57
2023-03-17T08:05:17.284Z,11.30
2023-03-17T08:06:16.766Z,10.85
2023-03-17T08:07:17.337Z,10.83
2023-03-17T08:08:16.808Z,11.06
2023-03-17T08:09:16.290Z,11.43
2023-03-17T08:10:16.797Z,11.71
2023-03-17T08:11:16.388Z,11.71
2023-03-17T08:12:17.225Z,11.14
2023-03-17T08:13:16.830Z,10.93
2023-03-17T08:14:16.337Z,11.17
2023-03-17T08:15:16.808Z,11.04
2023-03-17T08:16:16.390Z,11.38
2023-03-17T08:17:17.012Z,11.85
2023-03-17T08:18:16.503Z,11.90
2023-03-17T08:19:17.042Z,12.03
2023-03-17T08:20:16.586Z,12.32
2023-03-17T08:21:17.137Z,11.79
2023-03-17T08:22:17.188Z,12.17
2023-03-17T08:23:16.682Z,12.08
2023-03-17T08:24:17.256Z,12.44
2023-03-17T08:25:16.768Z,12.51
2023-03-17T08:26:17.293Z,12.48
2023-03-17T08:27:16.821Z,12.51
2023-03-17T08:28:16.353Z,12.56
2023-03-17T08:29:16.903Z,12.23
2023-03-17T08:30:16.509Z,12.99
2023-03-17T08:31:17.086Z,12.76
2023-03-17T08:32:16.762Z,13.10
2023-03-17T08:33:17.318Z,12.53
2023-03-17T08:34:16.953Z,12.42
2023-03-17T08:35:16.448Z,12.41
2023-03-17T08:36:16.959Z,12.53
2023-03-17T08:37:16.434Z,12.73
2023-03-17T08:38:16.982Z,13.14
2023-03-17T08:39:16.464Z,13.55
2023-03-17T08:40:17.038Z,13.58
2023-03-17T08:41:16.585Z,12.56
2023-03-17T08:42:16.678Z,12.99
2023-03-17T08:43:17.179Z,14.11
2023-03-17T08:44:16.737Z,14.29
2023-03-17T08:45:17.280Z,13.66
2023-03-17T08:46:16.897Z,13.77
2023-03-17T08:47:16.595Z,13.94
2023-03-17T08:48:17.089Z,13.65
2023-03-17T08:49:16.612Z,14.29
2023-03-17T08:50:17.167Z,14.39
2023-03-17T08:51:18.651Z,14.22
2023-03-17T08:52:16.423Z,14.43
2023-03-17T08:53:16.920Z,14.48
2023-03-17T08:54:16.513Z,14.65
2023-03-17T08:55:17.041Z,14.79
2023-03-17T08:56:16.553Z,13.18
2023-03-17T08:57:17.051Z,13.21
2023-03-17T08:58:16.603Z,13.66
2023-03-17T08:59:17.115Z,14.14
2023-03-17T09:00:16.641Z,14.14
2023-03-17T09:01:17.130Z,14.72
2023-03-17T09:02:16.907Z,15.19
2023-03-17T09:03:16.453Z,15.29
2023-03-17T09:04:16.958Z,15.49
2023-03-17T09:05:16.489Z,15.14
2023-03-17T09:06:16.984Z,15.12
2023-03-17T09:07:16.483Z,15.76
2023-03-17T09:08:17.035Z,15.18
2023-03-17T09:09:16.610Z,15.72
2023-03-17T09:10:17.175Z,16.56
2023-03-17T09:11:16.838Z,16.90
2023-03-17T09:12:17.209Z,16.86
2023-03-17T09:13:16.702Z,16.31
2023-03-17T09:14:17.204Z,15.73
2023-03-17T09:15:16.682Z,15.73
2023-03-17T09:16:17.282Z,16.08
2023-03-17T09:17:16.981Z,16.73
2023-03-17T09:18:16.475Z,16.99
2023-03-17T09:19:16.960Z,16.92
2023-03-17T09:20:16.450Z,16.64
2023-03-17T09:21:16.965Z,16.19
2023-03-17T09:22:16.725Z,16.24
2023-03-17T09:23:17.212Z,17.12
2023-03-17T09:24:16.710Z,17.42
2023-03-17T09:25:17.237Z,17.66
2023-03-17T09:26:16.793Z,17.63
2023-03-17T09:27:16.350Z,16.17
2023-03-17T09:28:16.892Z,16.33
2023-03-17T09:29:16.405Z,16.02
2023-03-17T09:30:16.876Z,15.83
2023-03-17T09:31:16.416Z,15.59
2023-03-17T09:32:17.243Z,15.25
2023-03-17T09:33:16.749Z,15.42
2023-03-17T09:34:17.274Z,16.09
2023-03-17T09:35:16.774Z,15.94
2023-03-17T09:36:17.304Z,15.42
2023-03-17T09:37:16.858Z,15.91
2023-03-17T09:38:16.407Z,16.08
2023-03-17T09:39:16.896Z,17.27
2023-03-17T09:40:16.421Z,17.71
2023-03-17T09:41:16.904Z,17.74
2023-03-17T09:42:16.595Z,18.02
2023-03-17T09:43:17.115Z,17.82
2023-03-17T09:44:16.578Z,17.49
2023-03-17T09:45:17.045Z,17.82
2023-03-17T09:46:16.560Z,18.09
2023-03-17T09:47:17.135Z,17.60
2023-03-17T09:48:16.656Z,16.92
2023-03-17T09:49:17.162Z,16.90
2023-03-17T09:50:16.668Z,17.49
2023-03-17T09:51:17.193Z,17.92
2023-03-17T09:52:16.447Z,17.91
2023-03-17T09:53:16.944Z,17.36
2023-03-17T09:54:16.415Z,17.40
2023-03-17T09:55:16.909Z,17.56
2023-03-17T09:56:16.384Z,17.91
2023-03-17T09:57:16.889Z,18.34
2023-03-17T09:58:16.387Z,18.42
2023-03-17T09:59:16.874Z,18.88
2023-03-17T10:00:16.382Z,18.92
2023-03-17T10:01:16.969Z,17.88
2023-03-17T10:02:16.762Z,17.15
2023-03-17T10:03:17.255Z,16.57
2023-03-17T10:04:18.781Z,16.36
2023-03-17T10:05:16.507Z,16.22
2023-03-17T10:06:17.124Z,16.31
2023-03-17T10:07:16.622Z,16.31
2023-03-17T10:08:29.853Z,15.88
2023-03-17T10:09:16.687Z,16.42
2023-03-17T10:10:17.178Z,16.60
2023-03-17T10:11:16.680Z,16.52
2023-03-17T10:12:16.579Z,16.36
2023-03-17T10:13:17.067Z,16.11
2023-03-17T10:14:16.589Z,16.33
2023-03-17T10:15:17.084Z,16.53
2023-03-17T10:16:16.616Z,16.94
2023-03-17T10:17:17.164Z,17.56
2023-03-17T10:18:16.679Z,18.47
2023-03-17T10:19:17.192Z,19.05
2023-03-17T10:20:16.691Z,19.19
2023-03-17T10:21:17.214Z,18.08
2023-03-17T10:22:16.836Z,16.63
2023-03-17T10:23:16.315Z,16.26
2023-03-17T10:24:16.819Z,16.54
2023-03-17T10:25:16.324Z,17.43
2023-03-17T10:26:16.824Z,16.40
2023-03-17T10:27:16.331Z,15.50
2023-03-17T10:28:16.834Z,15.76
2023-03-17T10:29:16.344Z,15.91
2023-03-17T10:30:16.852Z,16.04
2023-03-17T10:31:16.397Z,16.88
2023-03-17T10:32:16.783Z,16.77
2023-03-17T10:33:17.348Z,15.84
2023-03-17T10:34:16.845Z,15.70
2023-03-17T10:35:16.322Z,16.07
2023-03-17T10:36:16.862Z,16.59
2023-03-17T10:37:16.387Z,17.21
2023-03-17T10:38:16.938Z,17.87
2023-03-17T10:39:16.540Z,17.61
2023-03-17T10:40:19.233Z,16.21
2023-03-17T10:41:17.141Z,15.90
2023-03-17T10:42:16.613Z,16.22
2023-03-17T10:43:17.090Z,16.94
2023-03-17T10:44:16.587Z,16.88
2023-03-17T10:45:17.100Z,16.33
2023-03-17T10:46:16.611Z,16.05
2023-03-17T10:47:17.150Z,16.22
2023-03-17T10:48:16.648Z,16.11
2023-03-17T10:49:17.144Z,16.71
2023-03-17T10:50:16.658Z,17.08
2023-03-17T10:51:17.223Z,17.71
2023-03-17T10:52:16.697Z,18.16
2023-03-17T10:53:17.205Z,18.22
2023-03-17T10:54:16.725Z,17.53
2023-03-17T10:55:17.223Z,17.81
2023-03-17T10:56:16.753Z,18.23
2023-03-17T10:57:17.234Z,17.57
2023-03-17T10:58:16.730Z,17.97
2023-03-17T10:59:17.298Z,17.82
2023-03-17T11:00:16.853Z,17.91
2023-03-17T11:01:16.377Z,17.92
2023-03-17T11:02:16.311Z,17.99
2023-03-17T11:03:16.791Z,17.80
2023-03-17T11:04:17.380Z,17.76
2023-03-17T11:05:17.006Z,17.91
2023-03-17T11:06:16.623Z,17.99
2023-03-17T11:07:17.123Z,17.76
2023-03-17T11:08:16.626Z,17.58
2023-03-17T11:09:17.130Z,17.98
2023-03-17T11:10:16.664Z,18.50
2023-03-17T11:11:17.201Z,18.92
2023-03-17T11:12:16.648Z,18.82
2023-03-17T11:13:17.110Z,19.23
2023-03-17T11:14:16.619Z,19.03
2023-03-17T11:15:17.139Z,18.56
2023-03-17T11:16:16.689Z,18.89
2023-03-17T11:17:17.257Z,19.20
2023-03-17T11:18:16.804Z,18.94
2023-03-17T11:19:16.338Z,18.23
2023-03-17T11:20:16.933Z,18.27
2023-03-17T11:21:16.639Z,17.84
2023-03-17T11:22:16.501Z,18.25
2023-03-17T11:23:17.012Z,17.95
2023-03-17T11:24:16.544Z,17.81
2023-03-17T11:25:17.061Z,18.13
2023-03-17T11:26:16.571Z,17.82
2023-03-17T11:27:17.086Z,17.78
2023-03-17T11:28:16.598Z,18.12
2023-03-17T11:29:17.159Z,18.42
2023-03-17T11:30:16.723Z,18.50
2023-03-17T11:31:17.242Z,18.12
2023-03-17T11:32:16.986Z,18.16
2023-03-17T11:33:16.565Z,18.11
2023-03-17T11:34:17.093Z,18.58
2023-03-17T11:35:16.606Z,18.19
2023-03-17T11:36:17.108Z,18.34
2023-03-17T11:37:16.616Z,18.29
2023-03-17T11:38:17.125Z,18.08
2023-03-17T11:39:16.644Z,17.95
2023-03-17T11:40:17.151Z,18.15
2023-03-17T11:41:16.638Z,18.16
2023-03-17T11:42:16.366Z,18.51
2023-03-17T11:43:16.867Z,18.57
2023-03-17T11:44:16.370Z,18.94
2023-03-17T11:45:16.884Z,18.58
2023-03-17T11:46:16.469Z,18.16
2023-03-17T11:47:17.033Z,18.22
2023-03-17T11:48:16.542Z,18.32
2023-03-17T11:49:17.055Z,18.47
2023-03-17T11:50:16.684Z,18.40
2023-03-17T11:51:17.236Z,18.09
2023-03-17T11:52:17.117Z,18.26
2023-03-17T11:53:16.618Z,17.84
2023-03-17T11:54:17.109Z,17.92
2023-03-17T11:55:16.612Z,18.05
2023-03-17T11:56:17.130Z,17.77
2023-03-17T11:57:16.666Z,17.46
2023-03-17T11:58:17.184Z,17.36
2023-03-17T11:59:16.687Z,17.19
2023-03-17T12:00:17.204Z,16.92
2023-03-17T12:01:16.692Z,16.97
2023-03-17T12:02:16.931Z,17.18
2023-03-17T12:03:16.471Z,17.29
2023-03-17T12:04:17.066Z,17.30
2023-03-17T12:05:16.625Z,17.25
2023-03-17T12:06:17.170Z,17.23
2023-03-17T12:07:16.685Z,17.11
2023-03-17T12:08:17.177Z,17.05
2023-03-17T12:09:16.679Z,16.94
2023-03-17T12:10:17.173Z,16.90
2023-03-17T12:11:16.704Z,16.60
2023-03-17T12:12:16.442Z,16.90
2023-03-17T12:13:16.961Z,16.95
2023-03-17T12:14:16.438Z,16.80
2023-03-17T12:15:16.940Z,16.80
2023-03-17T12:16:16.608Z,16.66
2023-03-17T12:17:16.373Z,16.73
2023-03-17T12:18:16.912Z,16.87
2023-03-17T12:19:16.403Z,16.90
2023-03-17T12:20:16.898Z,16.91
2023-03-17T12:21:16.389Z,16.91
2023-03-17T12:22:17.204Z,16.94
2023-03-17T12:23:16.697Z,17.08
2023-03-17T12:24:17.270Z,17.09
2023-03-17T12:25:16.754Z,17.12
2023-03-17T12:26:17.273Z,16.87
2023-03-17T12:27:16.784Z,16.78
2023-03-17T12:28:17.297Z,16.77
2023-03-17T12:29:16.835Z,16.74
2023-03-17T12:30:16.345Z,16.68
2023-03-17T12:31:16.886Z,16.66
2023-03-17T12:32:16.431Z,16.37
2023-03-17T12:33:16.920Z,16.45
2023-03-17T12:34:16.412Z,16.42
2023-03-17T12:35:16.940Z,16.49
2023-03-17T12:36:16.507Z,16.39
2023-03-17T12:37:17.039Z,16.35
2023-03-17T12:38:16.557Z,16.18
2023-03-17T12:39:17.101Z,16.29
2023-03-17T12:40:16.611Z,16.33
2023-03-17T12:41:17.167Z,16.40
2023-03-17T12:42:16.311Z,16.46
2023-03-17T12:43:16.807Z,16.45
2023-03-17T12:44:17.293Z,16.45
2023-03-17T12:45:16.777Z,16.47
2023-03-17T12:46:17.324Z,16.53
2023-03-17T12:47:16.928Z,16.54
2023-03-17T12:48:16.401Z,16.54
2023-03-17T12:49:16.926Z,16.66
2023-03-17T12:50:16.426Z,16.68
2023-03-17T12:51:16.925Z,16.71
2023-03-17T12:52:16.892Z,16.71
2023-03-17T12:53:16.439Z,16.70
2023-03-17T12:54:16.959Z,16.70
2023-03-17T12:55:16.455Z,16.77
2023-03-17T12:56:16.970Z,16.73
2023-03-17T12:57:16.521Z,16.73
2023-03-17T12:58:17.039Z,16.81
2023-03-17T12:59:16.531Z,16.84
2023-03-17T13:00:17.040Z,16.88
2023-03-17T13:01:16.572Z,16.98
2023-03-17T13:02:17.098Z,17.08
2023-03-17T13:03:16.651Z,17.11
2023-03-17T13:04:17.232Z,17.09
2023-03-17T13:05:16.765Z,17.01
2023-03-17T13:06:17.289Z,16.97
2023-03-17T13:07:16.793Z,16.98
2023-03-17T13:08:17.319Z,16.99
2023-03-17T13:09:16.847Z,17.05
2023-03-17T13:10:16.360Z,17.04
2023-03-17T13:11:16.877Z,17.07
2023-03-17T13:12:16.889Z,17.09
2023-03-17T13:13:16.398Z,17.19
2023-03-17T13:14:16.871Z,17.19
2023-03-17T13:15:16.389Z,17.08
2023-03-17T13:16:16.959Z,17.05
2023-03-17T13:17:16.548Z,17.07
2023-03-17T13:18:17.083Z,17.04
2023-03-17T13:19:16.602Z,17.05
2023-03-17T13:20:17.128Z,17.05
2023-03-17T13:21:16.641Z,16.92
2023-03-17T13:22:16.404Z,16.97
2023-03-17T13:23:16.899Z,16.95
2023-03-17T13:24:16.477Z,16.98
2023-03-17T13:25:16.979Z,16.98
2023-03-17T13:26:16.496Z,16.98
2023-03-17T13:27:17.034Z,17.02
2023-03-17T13:28:16.522Z,16.99
2023-03-17T13:29:17.037Z,17.02
2023-03-17T13:30:16.593Z,17.09
2023-03-17T13:31:17.094Z,17.16
2023-03-17T13:32:16.959Z,17.18
2023-03-17T13:33:17.580Z,17.26
2023-03-17T13:34:17.196Z,17.39
2023-03-17T13:35:16.748Z,17.39
2023-03-17T13:36:17.329Z,17.40